KPBG/PBG METAR and TAF weather

Enter ICAO airport designator
Station Type Date Time Source
KPBG METAR 2019/02/23 22:53 UTC NOAA

KPBG 232253Z AUTO 00000KT 10SM CLR M01/M08 A3030 RMK AO2 SLP264 T10111083


Station Type Date Time Source
KPBG Decoded METAR 2019/02/23 22:53 UTC NOAA

PLATTSBURGH INTERNATIONAL AIRPORT, NY, United States (KPBG) 44-39N 073-28W
Feb 23, 2019 - 05:53 PM EST / 2019.02.23 2253 UTC
Wind: Calm:0
Visibility: 10 mile(s):0
Sky conditions: clear
Temperature: 30.0 F (-1.1 C)
Dew Point: 17.1 F (-8.3 C)
Relative Humidity: 58%
Pressure (altimeter): 30.3 in. Hg (1026 hPa)
ob: KPBG 232253Z AUTO 00000KT 10SM CLR M01/M08 A3030 RMK AO2 SLP264 T10111083
cycle: 23

Station Type Date Time Source
KPBG TAF 2019/02/23 18:39 UTC NOAA

TAF KPBG 231732Z 2318/2418 15005KT P6SM SCT180
FM240800 16012G23KT 6SM BR VCSH OVC035
FM241000 16013G26KT 4SM -FZRASNPL BR OVC022
FM241300 15015G30KT 3SM -RA BR OVC015


Example: see airport list